createdAt,value
2022-09-11T00:01:07.700Z,13.50
2022-09-11T00:03:35.935Z,13.50
2022-09-11T00:06:06.340Z,13.50
2022-09-11T00:08:35.059Z,13.50
2022-09-11T00:11:08.363Z,13.50
2022-09-11T00:13:37.731Z,13.50
2022-09-11T00:16:07.125Z,13.50
2022-09-11T00:18:36.482Z,13.40
2022-09-11T00:21:07.905Z,13.40
2022-09-11T00:23:36.454Z,13.40
2022-09-11T00:26:04.977Z,13.40
2022-09-11T00:28:32.837Z,13.30
2022-09-11T00:31:02.485Z,13.40
2022-09-11T00:33:30.894Z,13.40
2022-09-11T00:36:00.267Z,13.40
2022-09-11T00:38:31.274Z,13.40
2022-09-11T00:41:02.108Z,13.50
2022-09-11T00:43:32.043Z,13.40
2022-09-11T00:46:04.831Z,13.50
2022-09-11T00:48:36.259Z,13.50
2022-09-11T00:51:05.461Z,13.50
2022-09-11T00:53:36.997Z,13.50
2022-09-11T00:56:09.775Z,13.50
2022-09-11T00:58:40.477Z,13.50
2022-09-11T01:01:09.002Z,13.50
2022-09-11T01:03:37.114Z,13.40
2022-09-11T01:06:06.939Z,13.50
2022-09-11T01:08:38.370Z,13.50
2022-09-11T01:11:18.754Z,13.60
2022-09-11T01:13:55.935Z,13.50
2022-09-11T01:16:33.918Z,13.50
2022-09-11T01:19:10.853Z,13.50
2022-09-11T01:22:02.400Z,13.50
2022-09-11T01:24:56.352Z,13.50
2022-09-11T01:27:47.083Z,13.50
2022-09-11T01:30:18.080Z,13.50
2022-09-11T01:33:02.154Z,13.50
2022-09-11T01:35:42.804Z,13.60
2022-09-11T01:38:16.945Z,13.60
2022-09-11T08:28:47.025Z,15.50
2022-09-11T08:31:15.224Z,15.40
2022-09-11T08:33:43.020Z,15.40
2022-09-11T08:36:14.575Z,15.30
2022-09-11T08:38:43.826Z,15.30
2022-09-11T08:41:13.858Z,15.30
2022-09-11T08:43:51.261Z,15.40
2022-09-11T08:46:21.751Z,15.40
2022-09-11T08:48:57.519Z,15.40
2022-09-11T08:51:26.215Z,15.50
2022-09-11T08:53:56.034Z,15.50
2022-09-11T08:56:25.792Z,15.50
2022-09-11T08:59:11.419Z,15.70
2022-09-11T09:01:47.055Z,15.70
2022-09-11T09:04:32.175Z,15.70
2022-09-11T09:07:08.253Z,15.70
2022-09-11T09:09:49.118Z,15.80
2022-09-11T09:12:23.284Z,15.80
2022-09-11T09:15:20.782Z,15.90
2022-09-11T09:17:56.902Z,16.00
2022-09-11T09:20:30.887Z,16.00
2022-09-11T09:23:02.350Z,16.00
2022-09-11T09:25:35.061Z,15.90
2022-09-11T09:28:12.615Z,15.90
2022-09-11T09:30:50.244Z,15.80
2022-09-11T09:33:28.003Z,15.80
2022-09-11T09:35:57.674Z,15.90
2022-09-11T09:38:30.206Z,15.80
2022-09-11T09:41:15.959Z,15.90
2022-09-11T09:43:53.450Z,16.00
2022-09-11T09:46:32.143Z,16.00
2022-09-11T09:49:00.647Z,16.10
2022-09-11T09:51:29.113Z,16.20
2022-09-11T09:54:01.314Z,16.20
2022-09-11T09:56:31.537Z,16.10
2022-09-11T09:59:03.604Z,16.00
2022-09-11T10:01:47.001Z,15.90
2022-09-11T10:04:21.425Z,15.80
2022-09-11T10:06:51.900Z,15.70
2022-09-11T10:09:28.055Z,15.60
2022-09-11T10:12:02.488Z,15.60
2022-09-11T10:15:02.985Z,15.60
2022-09-11T10:17:24.795Z,15.60
2022-09-11T10:19:56.901Z,15.50
2022-09-11T10:22:28.904Z,15.40
2022-09-11T10:25:12.835Z,15.40
2022-09-11T10:27:46.035Z,15.40
2022-09-11T10:30:34.832Z,15.40
2022-09-11T10:33:16.283Z,15.60
2022-09-11T10:35:53.011Z,15.80
2022-09-11T10:38:22.071Z,15.90
2022-09-11T10:41:09.324Z,16.10
2022-09-11T10:43:44.325Z,16.00
2022-09-11T10:46:25.492Z,16.00
2022-09-11T10:48:56.970Z,16.10
2022-09-11T10:51:26.538Z,16.10
2022-09-11T10:54:14.310Z,16.20
2022-09-11T10:56:55.262Z,16.30
2022-09-11T10:59:27.402Z,16.50
2022-09-11T11:01:56.474Z,16.70
2022-09-11T11:04:30.252Z,17.00
2022-09-11T11:07:11.762Z,17.00
2022-09-11T11:09:53.666Z,17.00
2022-09-11T11:12:46.142Z,17.10
2022-09-11T11:15:33.152Z,17.10
2022-09-11T11:18:20.634Z,17.10
2022-09-11T11:20:57.499Z,17.00
2022-09-11T11:23:46.786Z,16.90
2022-09-11T11:26:37.562Z,16.70
2022-09-11T11:29:31.318Z,16.70
2022-09-11T11:32:14.246Z,16.50
2022-09-11T11:35:03.611Z,16.40
2022-09-11T11:37:35.367Z,16.30
2022-09-11T11:40:08.067Z,16.20
2022-09-11T11:42:41.095Z,16.20
2022-09-11T11:45:20.221Z,16.20
2022-09-11T11:47:50.237Z,16.20
2022-09-11T11:50:31.621Z,16.30
2022-09-11T11:53:07.146Z,16.50
2022-09-11T11:55:45.560Z,16.70
2022-09-11T11:58:20.334Z,17.00
2022-09-11T12:00:55.344Z,17.10
2022-09-11T12:03:28.358Z,17.40
2022-09-11T12:05:56.342Z,17.50
2022-09-11T12:08:25.537Z,17.40
2022-09-11T12:10:58.292Z,17.60
2022-09-11T12:13:32.337Z,17.70
2022-09-11T12:16:11.905Z,17.80
2022-09-11T12:18:41.990Z,17.90
2022-09-11T12:21:57.620Z,18.20
2022-09-11T12:24:52.322Z,18.20
2022-09-11T12:27:52.882Z,18.20
2022-09-11T12:30:27.553Z,17.90
2022-09-11T12:41:43.101Z,17.20
2022-09-11T12:44:30.490Z,17.10
2022-09-11T12:47:14.306Z,17.20
2022-09-11T12:49:51.418Z,17.20
2022-09-11T12:52:30.563Z,17.20
2022-09-11T12:55:01.699Z,17.40
2022-09-11T12:57:35.221Z,17.60
2022-09-11T13:00:22.247Z,17.80
2022-09-11T13:02:55.214Z,17.80
2022-09-11T13:05:27.746Z,17.80
2022-09-11T13:08:00.593Z,17.70
2022-09-11T13:10:35.172Z,17.70
2022-09-11T13:13:07.186Z,17.70
2022-09-11T13:15:42.981Z,17.70
2022-09-11T13:18:24.995Z,17.90
2022-09-11T13:21:12.913Z,18.10
2022-09-11T13:23:42.336Z,18.40
2022-09-11T13:26:16.147Z,18.50
2022-09-11T13:28:49.242Z,18.60
2022-09-11T13:31:21.156Z,18.60
2022-09-11T13:33:51.505Z,18.70
2022-09-11T13:36:24.555Z,18.40
2022-09-11T13:38:56.463Z,18.40
2022-09-11T13:41:28.059Z,18.30
2022-09-11T13:44:00.130Z,18.30
2022-09-11T13:46:31.375Z,18.10
2022-09-11T13:49:15.051Z,18.00
2022-09-11T13:51:45.832Z,17.90
2022-09-11T13:54:16.478Z,17.80
2022-09-11T13:56:47.930Z,17.80
2022-09-11T13:59:49.317Z,17.70
2022-09-11T14:02:31.458Z,17.70
2022-09-11T14:05:09.839Z,17.80
2022-09-11T14:07:47.179Z,17.90
2022-09-11T14:10:25.860Z,17.90
2022-09-11T14:13:10.840Z,17.90
2022-09-11T14:15:42.985Z,17.80
2022-09-11T14:18:18.530Z,17.90
2022-09-11T14:20:47.441Z,17.80
2022-09-11T14:23:21.044Z,17.90
2022-09-11T14:26:10.520Z,17.90
2022-09-11T14:28:43.874Z,18.00
2022-09-11T14:31:15.390Z,18.20
2022-09-11T14:33:43.637Z,18.40
2022-09-11T14:36:19.364Z,18.50
2022-09-11T14:38:48.089Z,18.50
2022-09-11T14:41:16.651Z,18.60
2022-09-11T14:43:47.720Z,18.60
2022-09-11T14:46:18.576Z,18.60
2022-09-11T14:48:47.158Z,18.50
2022-09-11T14:51:15.014Z,18.30
2022-09-11T14:53:43.857Z,18.20
2022-09-11T14:56:11.746Z,17.90
2022-09-11T14:58:39.536Z,17.80
2022-09-11T15:01:07.384Z,17.70
2022-09-11T15:03:36.787Z,17.60
2022-09-11T15:06:04.603Z,17.70
2022-09-11T15:08:32.374Z,17.80
2022-09-11T15:11:00.113Z,17.80
2022-09-11T15:13:27.880Z,17.80
2022-09-11T15:15:56.009Z,17.80
2022-09-11T15:18:23.886Z,17.80
2022-09-11T15:20:52.954Z,17.70
2022-09-11T15:23:20.765Z,17.70
2022-09-11T15:25:48.487Z,17.80
2022-09-11T15:28:16.278Z,17.90
2022-09-11T15:30:44.599Z,18.00
2022-09-11T15:33:12.383Z,18.10
2022-09-11T15:35:40.354Z,18.20
2022-09-11T15:38:09.807Z,18.10
2022-09-11T15:40:37.627Z,17.90
2022-09-11T15:43:05.417Z,17.90
2022-09-11T15:45:33.250Z,17.80
2022-09-11T15:48:02.187Z,17.80
2022-09-11T15:50:30.121Z,17.80
2022-09-11T15:52:58.321Z,17.90
2022-09-11T15:55:30.220Z,17.90
2022-09-11T15:58:00.721Z,17.90
2022-09-11T16:00:29.309Z,17.90
2022-09-11T16:02:57.210Z,17.80
2022-09-11T16:05:24.961Z,17.80
2022-09-11T16:07:52.710Z,17.70
2022-09-11T16:10:20.906Z,17.60
2022-09-11T16:12:50.220Z,17.60
2022-09-11T16:15:18.102Z,17.50
2022-09-11T16:17:45.853Z,17.40
2022-09-11T16:20:15.252Z,17.30
2022-09-11T16:22:44.043Z,17.40
2022-09-11T16:25:12.017Z,17.30
2022-09-11T16:27:39.795Z,17.40
2022-09-11T16:30:42.623Z,17.30
2022-09-11T16:32:58.643Z,17.30
2022-09-11T16:35:27.199Z,17.20
2022-09-11T16:37:54.991Z,17.20
2022-09-11T16:40:22.809Z,17.20
2022-09-11T16:42:50.567Z,17.10
2022-09-11T16:45:19.722Z,17.00
2022-09-11T16:47:47.566Z,16.90
2022-09-11T16:50:15.535Z,16.80
2022-09-11T16:52:43.299Z,16.70
2022-09-11T16:55:12.411Z,16.70
2022-09-11T16:57:41.094Z,16.60
2022-09-11T17:00:10.592Z,16.50
2022-09-11T17:02:39.752Z,16.40
2022-09-11T17:05:08.999Z,16.40
2022-09-11T17:07:37.006Z,16.30
2022-09-11T17:10:05.434Z,16.30
2022-09-11T17:12:33.287Z,16.20
2022-09-11T17:15:01.839Z,16.20
2022-09-11T17:17:31.172Z,16.20
2022-09-11T17:20:00.276Z,16.10
2022-09-11T17:22:29.571Z,16.10
2022-09-11T17:24:57.370Z,16.00
2022-09-11T17:27:25.135Z,15.90
2022-09-11T17:29:52.878Z,15.80
2022-09-11T17:32:28.291Z,15.80
2022-09-11T17:34:56.666Z,15.70
2022-09-11T17:37:26.798Z,15.70
2022-09-11T17:39:55.311Z,15.60
2022-09-11T17:42:23.676Z,15.60
2022-09-11T17:44:51.469Z,15.60
2022-09-11T17:47:19.495Z,15.50
2022-09-11T17:49:47.295Z,15.50
2022-09-11T17:52:15.457Z,15.50
2022-09-11T17:54:44.626Z,15.50
2022-09-11T17:57:12.358Z,15.50
2022-09-11T17:59:40.135Z,15.40
2022-09-11T18:02:08.548Z,15.40
2022-09-11T18:04:36.359Z,15.40
2022-09-11T18:07:04.301Z,15.40
2022-09-11T18:09:32.035Z,15.40
2022-09-11T18:12:03.478Z,15.40
2022-09-11T18:14:31.857Z,15.40
2022-09-11T18:16:59.648Z,15.40
2022-09-11T18:19:28.030Z,15.40
2022-09-11T18:21:56.011Z,15.30
2022-09-11T18:24:23.823Z,15.30
2022-09-11T18:26:58.595Z,15.30
2022-09-11T18:29:30.037Z,15.30
2022-09-11T18:31:59.914Z,15.30
2022-09-11T18:34:29.032Z,15.20
2022-09-11T18:36:56.770Z,15.20
2022-09-11T18:39:24.548Z,15.20
2022-09-11T18:41:53.451Z,15.20
2022-09-11T18:44:25.106Z,15.10
2022-09-11T18:46:55.341Z,15.10
2022-09-11T18:49:23.616Z,15.00
2022-09-11T18:51:51.816Z,15.00
2022-09-11T18:54:21.238Z,14.90
2022-09-11T18:56:50.304Z,14.90
2022-09-11T18:59:19.306Z,14.90
2022-09-11T19:01:47.437Z,14.80
2022-09-11T19:04:17.225Z,14.80
2022-09-11T19:06:46.150Z,14.70
2022-09-11T19:09:14.679Z,14.60
2022-09-11T19:11:43.142Z,14.60
2022-09-11T19:14:13.179Z,14.60
2022-09-11T19:16:42.287Z,14.60
2022-09-11T19:19:10.610Z,14.50
2022-09-11T19:21:39.734Z,14.50
2022-09-11T19:24:08.086Z,14.50
2022-09-11T19:26:38.701Z,14.40
2022-09-11T19:29:08.427Z,14.30
2022-09-11T19:31:37.107Z,14.40
2022-09-11T19:34:05.171Z,14.40
2022-09-11T19:36:35.114Z,14.30
2022-09-11T19:39:05.712Z,14.30
2022-09-11T19:41:35.664Z,14.20
2022-09-11T19:44:04.931Z,14.20
2022-09-11T19:46:34.595Z,14.20
2022-09-11T19:49:03.825Z,14.20
2022-09-11T19:51:33.996Z,14.20
2022-09-11T19:54:03.874Z,14.10
2022-09-11T19:56:33.344Z,14.00
2022-09-11T19:59:01.318Z,14.00
2022-09-11T20:01:30.506Z,14.00
2022-09-11T20:04:00.565Z,14.00
2022-09-11T20:06:30.537Z,13.90
2022-09-11T20:09:20.192Z,13.90
2022-09-11T20:11:49.051Z,13.90
2022-09-11T20:14:17.077Z,13.80
2022-09-11T20:16:45.034Z,13.90
2022-09-11T20:19:14.750Z,13.80
2022-09-11T20:21:42.533Z,13.80
2022-09-11T20:24:10.303Z,13.80
2022-09-11T20:26:38.077Z,13.70
2022-09-11T20:29:09.103Z,13.70
2022-09-11T20:31:46.351Z,13.60
2022-09-11T20:34:15.599Z,13.60
2022-09-11T20:36:43.341Z,13.50
2022-09-11T20:39:12.762Z,13.50
2022-09-11T20:41:40.491Z,13.50
2022-09-11T20:44:09.733Z,13.40
2022-09-11T20:46:37.663Z,13.40
2022-09-11T20:49:06.073Z,13.40
2022-09-11T20:51:34.564Z,13.40
2022-09-11T20:54:02.384Z,13.30
2022-09-11T20:56:30.489Z,13.30
2022-09-11T20:59:00.039Z,13.30
2022-09-11T21:01:32.253Z,13.20
2022-09-11T21:04:00.876Z,13.20
2022-09-11T21:06:30.946Z,13.20
2022-09-11T21:09:00.698Z,13.30
2022-09-11T21:11:30.370Z,13.30
2022-09-11T21:13:58.279Z,13.20
2022-09-11T21:16:26.479Z,13.10
2022-09-11T21:18:58.234Z,13.10
2022-09-11T21:21:27.461Z,13.10
2022-09-11T21:23:55.941Z,13.10
2022-09-11T21:26:25.999Z,13.10
2022-09-11T21:28:53.805Z,13.10
2022-09-11T21:31:21.610Z,13.10
2022-09-11T21:33:49.423Z,13.00
2022-09-11T21:36:19.066Z,13.00
2022-09-11T21:38:47.100Z,13.00
2022-09-11T21:41:15.782Z,13.00
2022-09-11T21:43:43.721Z,12.90
2022-09-11T21:46:11.518Z,12.90
2022-09-11T21:48:41.674Z,12.90
2022-09-11T21:51:11.672Z,12.80
2022-09-11T21:53:42.652Z,12.90
2022-09-11T21:56:18.141Z,12.80
2022-09-11T21:58:45.914Z,12.70
2022-09-11T22:01:13.918Z,12.70
2022-09-11T22:03:41.741Z,12.70
2022-09-11T22:06:11.093Z,12.70
2022-09-11T22:08:42.997Z,12.70
2022-09-11T22:11:12.015Z,12.70
2022-09-11T22:13:40.410Z,12.60
2022-09-11T22:16:10.810Z,12.60
2022-09-11T22:18:40.671Z,12.60
2022-09-11T22:21:09.311Z,12.60
2022-09-11T22:23:37.477Z,12.60
2022-09-11T22:26:09.581Z,12.60
2022-09-11T22:28:38.321Z,12.60
2022-09-11T22:31:08.618Z,12.60
2022-09-11T22:33:37.902Z,12.50
2022-09-11T22:36:11.237Z,12.50
2022-09-11T22:38:39.341Z,12.50
2022-09-11T22:41:09.290Z,12.40
2022-09-11T22:43:37.500Z,12.40
2022-09-11T22:46:06.073Z,12.40
2022-09-11T22:48:33.965Z,12.40
2022-09-11T22:51:02.113Z,12.50
2022-09-11T22:53:30.913Z,12.40
2022-09-11T22:55:59.125Z,12.40
2022-09-11T22:58:30.483Z,12.40
2022-09-11T23:00:58.933Z,12.40
2022-09-11T23:03:27.139Z,12.20
2022-09-11T23:06:13.786Z,12.20
2022-09-11T23:08:41.713Z,12.20
2022-09-11T23:11:11.106Z,12.20
2022-09-11T23:13:41.375Z,12.20
2022-09-11T23:16:15.143Z,12.20
2022-09-11T23:18:44.032Z,12.20
2022-09-11T23:21:12.626Z,12.10
2022-09-11T23:23:42.721Z,12.00
2022-09-11T23:26:12.290Z,12.10
2022-09-11T23:28:41.840Z,12.10
2022-09-11T23:31:13.576Z,12.10
2022-09-11T23:33:41.964Z,12.00
2022-09-11T23:36:12.103Z,12.10
2022-09-11T23:38:40.391Z,12.00
2022-09-11T23:41:08.734Z,11.90
2022-09-11T23:43:36.514Z,11.90
2022-09-11T23:46:05.810Z,11.90
2022-09-11T23:48:33.544Z,11.80
2022-09-11T23:51:02.010Z,11.90
2022-09-11T23:53:30.420Z,11.90
2022-09-11T23:55:59.051Z,11.90
2022-09-11T23:58:26.927Z,11.90
